createdAt,value
2024-03-02T00:01:45.871Z,30.30
2024-03-02T00:04:13.266Z,30.37
2024-03-02T00:06:43.858Z,31.97
2024-03-02T00:09:15.032Z,31.63
2024-03-02T00:11:46.115Z,30.70
2024-03-02T00:14:14.454Z,31.23
2024-03-02T00:16:42.656Z,30.07
2024-03-02T00:19:12.794Z,29.77
2024-03-02T00:21:40.390Z,28.20
2024-03-02T00:24:21.994Z,28.80
2024-03-02T00:26:51.947Z,28.97
2024-03-02T00:29:21.905Z,27.93
2024-03-02T00:31:52.502Z,26.53
2024-03-02T00:34:22.448Z,26.50
2024-03-02T00:36:51.178Z,28.17
2024-03-02T00:39:22.412Z,26.07
2024-03-02T00:41:51.687Z,26.40
2024-03-02T00:44:20.556Z,29.67
2024-03-02T00:46:47.940Z,27.93
2024-03-02T00:49:25.051Z,27.53
2024-03-02T00:51:54.581Z,28.77
2024-03-02T00:54:27.156Z,28.57
2024-03-02T00:56:59.871Z,27.67
2024-03-02T00:59:27.236Z,27.87
2024-03-02T01:01:57.985Z,25.93
2024-03-02T01:04:26.585Z,27.57
2024-03-02T01:06:53.831Z,24.63
2024-03-02T01:09:21.074Z,26.17
2024-03-02T01:11:51.707Z,25.77
2024-03-02T01:14:18.973Z,26.00
2024-03-02T01:16:49.234Z,27.27
2024-03-02T01:19:21.210Z,27.33
2024-03-02T01:21:49.517Z,27.87
2024-03-02T01:24:16.685Z,27.50
2024-03-02T01:26:47.871Z,27.87
2024-03-02T01:29:25.151Z,28.23
2024-03-02T01:31:53.278Z,26.67
2024-03-02T01:34:26.343Z,28.43
2024-03-02T01:36:54.225Z,28.50
2024-03-02T01:39:24.639Z,24.70
2024-03-02T01:41:52.125Z,23.80
2024-03-02T01:44:28.730Z,26.37
2024-03-02T01:46:59.674Z,27.77
2024-03-02T01:49:28.864Z,29.30
2024-03-02T01:52:00.698Z,30.63
2024-03-02T01:54:28.733Z,31.67
2024-03-02T01:56:55.794Z,32.20
2024-03-02T01:59:23.996Z,34.20
2024-03-02T02:01:52.860Z,33.43
2024-03-02T02:04:30.208Z,35.63
2024-03-02T02:07:01.706Z,34.93
2024-03-02T02:09:32.236Z,36.07
2024-03-02T02:12:05.119Z,38.43
2024-03-02T02:14:36.585Z,37.23
2024-03-02T02:17:03.955Z,36.87
2024-03-02T02:19:31.763Z,37.13
2024-03-02T02:22:00.383Z,37.77
2024-03-02T02:24:29.752Z,37.47
2024-03-02T02:27:00.496Z,36.77
2024-03-02T02:29:29.923Z,35.83
2024-03-02T02:31:57.026Z,36.77
2024-03-02T02:34:26.985Z,36.33
2024-03-02T02:36:58.894Z,37.00
2024-03-02T02:39:26.781Z,37.13
2024-03-02T02:42:00.065Z,35.73
2024-03-02T02:44:36.185Z,37.00
2024-03-02T02:47:07.789Z,37.33
2024-03-02T02:49:45.038Z,39.43
2024-03-02T02:52:17.300Z,37.07
2024-03-02T02:54:47.488Z,38.40
2024-03-02T02:57:17.694Z,40.10
2024-03-02T02:59:45.262Z,37.73
2024-03-02T03:02:18.284Z,36.57
2024-03-02T03:04:46.037Z,36.33
2024-03-02T03:07:15.630Z,36.73
2024-03-02T03:09:44.008Z,35.67
2024-03-02T03:12:13.407Z,36.93
2024-03-02T03:14:42.944Z,37.43
2024-03-02T03:17:12.087Z,35.90
2024-03-02T03:19:46.673Z,35.33
2024-03-02T03:22:15.949Z,35.43
2024-03-02T03:24:46.510Z,33.60
2024-03-02T03:27:14.476Z,34.37
2024-03-02T03:29:41.652Z,32.10
2024-03-02T03:32:10.877Z,29.50
2024-03-02T03:34:41.862Z,28.77
2024-03-02T03:37:11.507Z,29.60
2024-03-02T03:39:38.958Z,32.03
2024-03-02T03:42:06.809Z,31.37
2024-03-02T03:44:36.472Z,30.73
2024-03-02T03:47:06.187Z,31.53
2024-03-02T03:49:33.368Z,32.97
2024-03-02T03:52:04.016Z,31.47
2024-03-02T03:54:35.671Z,32.67
2024-03-02T03:57:03.505Z,33.43
2024-03-02T03:59:33.819Z,34.17
2024-03-02T04:02:12.237Z,33.73
2024-03-02T04:04:39.728Z,34.07
2024-03-02T04:07:07.243Z,34.47
2024-03-02T04:09:34.665Z,34.07
2024-03-02T04:12:07.596Z,34.70
2024-03-02T04:14:35.237Z,33.93
2024-03-02T04:17:02.752Z,34.27
2024-03-02T04:19:32.866Z,39.40
2024-03-02T04:22:05.593Z,41.80
2024-03-02T04:24:37.340Z,36.27
2024-03-02T04:27:07.160Z,34.73
2024-03-02T04:29:37.986Z,34.90
2024-03-02T04:32:06.126Z,34.43
2024-03-02T04:34:33.464Z,34.50
2024-03-02T04:37:04.282Z,33.37
2024-03-02T04:39:32.524Z,32.40
2024-03-02T04:42:03.510Z,33.83
2024-03-02T04:44:34.663Z,32.33
2024-03-02T04:47:02.174Z,31.23
2024-03-02T04:49:29.958Z,31.27
2024-03-02T04:52:06.079Z,31.03
2024-03-02T04:54:36.430Z,31.33
2024-03-02T04:57:04.063Z,31.17
2024-03-02T04:59:37.731Z,30.83
2024-03-02T05:02:05.054Z,31.37
2024-03-02T05:04:42.297Z,30.90
2024-03-02T05:07:11.345Z,30.87
2024-03-02T05:09:39.144Z,30.53
2024-03-02T05:12:28.617Z,30.50
2024-03-02T05:14:57.361Z,31.13
2024-03-02T05:17:24.536Z,30.07
2024-03-02T05:19:52.189Z,29.57
2024-03-02T05:22:22.553Z,29.30
2024-03-02T05:24:49.705Z,29.27
2024-03-02T05:27:17.714Z,29.93
2024-03-02T05:29:45.131Z,29.43
2024-03-02T05:32:14.495Z,29.33
2024-03-02T05:34:44.877Z,30.07
2024-03-02T05:37:13.297Z,28.50
2024-03-02T05:39:42.278Z,28.57
2024-03-02T05:42:12.695Z,27.10
2024-03-02T05:44:41.226Z,27.10
2024-03-02T05:47:11.103Z,27.80
2024-03-02T05:49:45.610Z,27.17
2024-03-02T05:52:14.679Z,27.63
2024-03-02T05:54:42.019Z,28.10
2024-03-02T05:57:24.563Z,29.10
2024-03-02T05:59:53.551Z,29.57
2024-03-02T06:02:24.050Z,29.57
2024-03-02T06:04:51.682Z,29.80
2024-03-02T06:07:25.785Z,32.53
2024-03-02T06:09:55.042Z,29.90
2024-03-02T06:12:25.404Z,31.17
2024-03-02T06:14:55.243Z,31.00
2024-03-02T06:17:22.857Z,31.37
2024-03-02T06:19:51.377Z,32.43
2024-03-02T06:22:18.642Z,32.30
2024-03-02T06:24:46.743Z,32.53
2024-03-02T06:27:16.832Z,33.03
2024-03-02T06:29:44.479Z,32.07
2024-03-02T06:32:16.216Z,34.40
2024-03-02T06:34:46.223Z,34.03
2024-03-02T06:37:14.895Z,36.47
2024-03-02T06:39:44.477Z,35.37
2024-03-02T06:42:14.706Z,34.77
2024-03-02T06:44:42.953Z,34.30
2024-03-02T06:47:10.037Z,33.93
2024-03-02T06:49:37.677Z,34.30
2024-03-02T06:52:08.205Z,33.57
2024-03-02T06:54:36.259Z,33.23
2024-03-02T06:57:04.137Z,33.83
2024-03-02T06:59:36.029Z,32.10
2024-03-02T07:02:05.582Z,32.43
2024-03-02T07:04:39.509Z,33.93
2024-03-02T07:07:07.306Z,33.10
2024-03-02T07:09:34.883Z,34.03
2024-03-02T07:12:03.006Z,32.57
2024-03-02T07:14:49.891Z,33.13
2024-03-02T07:17:20.686Z,32.40
2024-03-02T07:19:48.332Z,32.13
2024-03-02T07:22:15.030Z,31.83
2024-03-02T07:24:47.828Z,33.43
2024-03-02T07:27:18.228Z,32.57
2024-03-02T07:29:51.064Z,32.00
2024-03-02T07:32:20.919Z,31.73
2024-03-02T07:34:47.854Z,31.47
2024-03-02T07:37:14.853Z,30.90
2024-03-02T07:39:43.706Z,31.97
2024-03-02T07:42:10.818Z,29.97
2024-03-02T07:44:42.206Z,29.97
2024-03-02T07:47:10.989Z,30.90
2024-03-02T07:49:39.295Z,30.70
2024-03-02T07:52:07.465Z,30.87
2024-03-02T07:54:37.905Z,28.97
2024-03-02T07:57:05.578Z,28.00
2024-03-02T07:59:32.751Z,28.27
2024-03-02T08:02:00.721Z,27.83
2024-03-02T08:04:30.718Z,28.00
2024-03-02T08:07:00.382Z,27.43
2024-03-02T08:09:29.337Z,29.27
2024-03-02T08:12:00.271Z,29.07
2024-03-02T08:14:32.748Z,29.30
2024-03-02T08:17:03.468Z,28.13
2024-03-02T08:19:33.814Z,27.03
2024-03-02T08:22:03.601Z,27.63
2024-03-02T08:24:33.234Z,27.63
2024-03-02T08:27:01.444Z,27.90
2024-03-02T08:29:31.006Z,26.83
2024-03-02T08:32:02.389Z,27.30
2024-03-02T08:34:31.381Z,28.17
2024-03-02T08:37:02.089Z,28.50
2024-03-02T08:39:31.537Z,27.80
2024-03-02T08:42:01.407Z,28.03
2024-03-02T08:44:28.704Z,26.47
2024-03-02T08:46:55.984Z,26.97
2024-03-02T08:49:22.797Z,27.10
2024-03-02T08:51:56.559Z,28.30
2024-03-02T08:54:24.445Z,26.97
2024-03-02T08:56:53.231Z,27.23
2024-03-02T08:59:22.796Z,27.80
2024-03-02T09:01:58.162Z,27.00
2024-03-02T09:04:27.479Z,27.37
2024-03-02T09:06:56.108Z,27.03
2024-03-02T09:09:23.268Z,26.07
2024-03-02T09:11:50.765Z,26.07
2024-03-02T09:14:18.559Z,27.30
2024-03-02T09:16:45.820Z,27.07
2024-03-02T09:19:14.664Z,26.70
2024-03-02T09:21:46.070Z,25.67
2024-03-02T09:24:17.694Z,27.60
2024-03-02T09:26:46.242Z,27.40
2024-03-02T09:29:19.024Z,27.50
2024-03-02T09:31:47.859Z,27.27
2024-03-02T09:34:16.245Z,27.77
2024-03-02T09:36:45.386Z,27.50
2024-03-02T09:39:16.236Z,28.20
2024-03-02T09:41:43.147Z,27.13
2024-03-02T09:44:11.905Z,27.73
2024-03-02T09:46:39.078Z,27.37
2024-03-02T09:49:06.674Z,26.53
2024-03-02T09:51:41.682Z,26.83
2024-03-02T09:54:18.318Z,26.93
2024-03-02T09:56:52.521Z,26.80
2024-03-02T09:59:22.212Z,26.20
2024-03-02T10:02:20.056Z,26.80
2024-03-02T10:04:49.754Z,26.93
2024-03-02T10:07:21.212Z,24.90
2024-03-02T10:09:49.451Z,25.87
2024-03-02T10:12:17.494Z,26.30
2024-03-02T10:14:45.096Z,27.30
2024-03-02T10:17:15.155Z,25.83
2024-03-02T10:19:48.351Z,28.00
2024-03-02T10:22:15.530Z,27.53
2024-03-02T10:24:55.050Z,27.27
2024-03-02T10:27:31.686Z,26.30
2024-03-02T10:29:59.533Z,21.23
2024-03-02T10:32:27.370Z,16.60
2024-03-02T10:34:58.953Z,17.40
2024-03-02T10:37:28.975Z,16.67
2024-03-02T10:39:56.080Z,16.73
2024-03-02T10:42:24.295Z,17.07
2024-03-02T10:44:53.634Z,16.60
2024-03-02T10:47:21.816Z,16.27
2024-03-02T10:49:51.000Z,17.33
2024-03-02T10:52:18.518Z,17.57
2024-03-02T10:54:50.172Z,16.90
2024-03-02T10:57:18.578Z,16.60
2024-03-02T10:59:54.113Z,17.07
2024-03-02T11:02:25.527Z,18.13
2024-03-02T11:04:56.551Z,19.20
2024-03-02T11:07:26.392Z,20.40
2024-03-02T11:10:00.768Z,18.50
2024-03-02T11:12:39.114Z,20.00
2024-03-02T11:15:11.199Z,22.23
2024-03-02T11:17:39.855Z,22.53
2024-03-02T11:20:10.573Z,22.53
2024-03-02T11:22:38.338Z,22.67
2024-03-02T11:25:08.625Z,23.87
2024-03-02T11:27:50.441Z,25.07
2024-03-02T11:30:33.823Z,24.60
2024-03-02T11:33:13.682Z,26.53
2024-03-02T11:35:51.107Z,26.53
2024-03-02T11:38:21.648Z,25.50
2024-03-02T11:40:49.808Z,27.33
2024-03-02T11:43:19.128Z,25.93
2024-03-02T11:45:51.718Z,27.17
2024-03-02T11:48:21.270Z,27.47
2024-03-02T11:50:50.340Z,27.50
2024-03-02T11:53:21.622Z,28.13
2024-03-02T11:55:49.895Z,28.17
2024-03-02T11:58:28.683Z,29.10
2024-03-02T12:01:00.183Z,28.33
2024-03-02T12:03:30.259Z,29.40
2024-03-02T12:05:59.986Z,27.90
2024-03-02T12:08:28.130Z,28.50
2024-03-02T12:11:00.282Z,27.40
2024-03-02T12:13:29.178Z,28.23
2024-03-02T12:15:57.895Z,29.30
2024-03-02T12:18:25.128Z,28.17
2024-03-02T12:20:54.824Z,28.13
2024-03-02T12:23:27.445Z,28.20
2024-03-02T12:25:55.217Z,27.80
2024-03-02T12:28:22.258Z,29.80
2024-03-02T12:30:50.274Z,31.73
2024-03-02T12:33:17.805Z,30.90
2024-03-02T12:35:44.584Z,31.13
2024-03-02T12:38:17.102Z,30.47
2024-03-02T12:40:47.228Z,34.37
2024-03-02T12:43:17.986Z,32.57
2024-03-02T12:45:45.393Z,31.50
2024-03-02T12:48:15.142Z,30.80
2024-03-02T12:50:43.124Z,31.40
2024-03-02T12:53:15.535Z,32.73
2024-03-02T12:55:43.626Z,32.77
2024-03-02T12:58:11.331Z,33.23
2024-03-02T13:00:40.160Z,34.03
2024-03-02T13:03:08.719Z,33.67
2024-03-02T13:05:37.379Z,34.90
2024-03-02T13:08:10.177Z,34.53
2024-03-02T13:10:41.634Z,35.03
2024-03-02T13:13:09.320Z,36.07
2024-03-02T13:15:40.309Z,35.57
2024-03-02T13:18:15.174Z,36.67
2024-03-02T13:20:42.269Z,34.70
2024-03-02T13:23:11.903Z,34.63
2024-03-02T13:25:42.280Z,33.93
2024-03-02T13:28:12.390Z,34.47
2024-03-02T13:30:43.131Z,34.33
2024-03-02T13:33:14.842Z,35.60
2024-03-02T13:35:42.891Z,32.10
2024-03-02T13:38:13.443Z,32.23
2024-03-02T13:40:45.260Z,32.57
2024-03-02T13:43:13.519Z,32.87
2024-03-02T13:45:47.950Z,33.90
2024-03-02T13:48:16.395Z,33.97
2024-03-02T13:50:44.436Z,34.43
2024-03-02T13:53:12.977Z,33.30
2024-03-02T13:55:40.139Z,34.73
2024-03-02T13:58:09.091Z,32.40
2024-03-02T14:00:40.393Z,34.83
2024-03-02T14:03:08.514Z,35.73
2024-03-02T14:05:36.292Z,34.80
2024-03-02T14:08:03.979Z,36.80
2024-03-02T14:10:34.234Z,38.03
2024-03-02T14:13:02.345Z,38.30
2024-03-02T14:15:34.967Z,37.53
2024-03-02T14:18:04.065Z,39.20
2024-03-02T14:20:31.787Z,40.00
2024-03-02T14:23:01.246Z,39.43
2024-03-02T14:25:33.213Z,39.93
2024-03-02T14:28:23.127Z,39.40
2024-03-02T14:30:48.245Z,39.97
2024-03-02T14:33:24.758Z,38.97
2024-03-02T14:35:53.543Z,40.13
2024-03-02T14:38:24.806Z,40.03
2024-03-02T14:40:56.006Z,40.43
2024-03-02T14:43:23.691Z,41.30
2024-03-02T14:45:54.729Z,42.73
2024-03-02T14:48:26.049Z,39.77
2024-03-02T14:50:54.282Z,40.17
2024-03-02T14:53:21.134Z,39.80
2024-03-02T14:55:48.245Z,40.57
2024-03-02T14:58:18.277Z,37.60
2024-03-02T15:00:50.790Z,38.30
2024-03-02T15:03:18.450Z,38.40
2024-03-02T15:05:47.015Z,36.37
2024-03-02T15:08:25.300Z,35.87
2024-03-02T15:10:52.805Z,36.80
2024-03-02T15:13:19.613Z,35.47
2024-03-02T15:15:47.863Z,34.30
2024-03-02T15:18:16.440Z,37.17
2024-03-02T15:20:45.879Z,36.27
2024-03-02T15:23:17.131Z,35.80
2024-03-02T15:25:44.671Z,34.20
2024-03-02T15:28:17.999Z,34.13
2024-03-02T15:30:46.138Z,33.13
2024-03-02T15:33:13.700Z,32.20
2024-03-02T15:35:41.879Z,32.27
2024-03-02T15:38:22.072Z,32.23
2024-03-02T15:40:59.310Z,31.93
2024-03-02T15:43:26.563Z,33.13
2024-03-02T15:45:55.291Z,33.60
2024-03-02T15:48:22.815Z,31.60
2024-03-02T15:50:53.470Z,32.07
2024-03-02T15:53:25.871Z,32.97
2024-03-02T15:55:53.220Z,32.63
2024-03-02T15:58:21.043Z,33.70
2024-03-02T16:00:48.553Z,33.00
2024-03-02T16:03:21.413Z,33.13
2024-03-02T16:05:49.125Z,32.80
2024-03-02T16:08:16.644Z,33.10
2024-03-02T16:10:44.507Z,33.80
2024-03-02T16:13:12.735Z,33.67
2024-03-02T16:15:40.978Z,33.70
2024-03-02T16:18:11.640Z,34.43
2024-03-02T16:20:40.151Z,34.23
2024-03-02T16:23:08.128Z,34.47
2024-03-02T16:25:38.371Z,35.47
2024-03-02T16:28:07.624Z,35.77
2024-03-02T16:30:38.527Z,35.87
2024-03-02T16:33:06.552Z,35.73
2024-03-02T16:35:34.127Z,36.40
2024-03-02T16:38:02.679Z,35.47
2024-03-02T16:40:33.356Z,35.40
2024-03-02T16:43:01.718Z,36.77
2024-03-02T16:45:31.559Z,35.10
2024-03-02T16:47:59.541Z,35.67
2024-03-02T16:50:26.557Z,36.10
2024-03-02T16:52:57.032Z,36.77
2024-03-02T16:55:24.785Z,37.07
2024-03-02T16:57:54.151Z,37.03
2024-03-02T17:00:23.151Z,37.37
2024-03-02T17:02:54.466Z,38.17
2024-03-02T17:05:23.600Z,37.60
2024-03-02T17:07:50.795Z,37.20
2024-03-02T17:10:17.974Z,36.13
2024-03-02T17:12:45.356Z,36.77
2024-03-02T17:15:14.179Z,35.77
2024-03-02T17:17:41.392Z,36.20
2024-03-02T17:20:10.487Z,35.73
2024-03-02T17:22:37.694Z,34.67
2024-03-02T17:25:09.426Z,36.03
2024-03-02T17:27:37.448Z,35.93
2024-03-02T17:30:04.679Z,34.90
2024-03-02T17:32:33.761Z,35.00
2024-03-02T17:35:08.720Z,34.93
2024-03-02T17:37:37.681Z,36.10
2024-03-02T17:40:06.480Z,34.80
2024-03-02T17:42:33.833Z,35.13
2024-03-02T17:45:01.814Z,35.70
2024-03-02T17:47:29.293Z,35.67
2024-03-02T17:49:57.306Z,35.70
2024-03-02T17:52:27.473Z,36.87
2024-03-02T17:54:57.037Z,36.97
2024-03-02T17:57:26.496Z,38.07
2024-03-02T17:59:56.191Z,39.13
2024-03-02T18:02:48.962Z,37.93
2024-03-02T18:05:17.330Z,39.27
2024-03-02T18:07:44.269Z,39.20
2024-03-02T18:10:12.881Z,39.07
2024-03-02T18:12:40.196Z,39.90
2024-03-02T18:15:25.526Z,39.47
2024-03-02T18:17:53.907Z,39.53
2024-03-02T18:20:23.353Z,39.83
2024-03-02T18:22:51.190Z,39.27
2024-03-02T18:25:24.304Z,40.30
2024-03-02T18:27:51.960Z,40.30
2024-03-02T18:30:19.790Z,40.93
2024-03-02T18:32:47.397Z,42.63
2024-03-02T18:35:14.492Z,41.77
2024-03-02T18:37:46.600Z,39.40
2024-03-02T18:40:16.092Z,40.67
2024-03-02T18:42:43.353Z,38.83
2024-03-02T18:45:11.120Z,38.77
2024-03-02T18:47:40.546Z,41.43
2024-03-02T18:50:11.282Z,37.67
2024-03-02T18:52:38.581Z,37.93
2024-03-02T18:55:08.790Z,37.27
2024-03-02T18:57:38.398Z,35.60
2024-03-02T19:00:13.881Z,37.50
2024-03-02T19:02:45.517Z,37.30
2024-03-02T19:05:15.063Z,38.77
2024-03-02T19:07:45.228Z,35.43
2024-03-02T19:10:12.655Z,39.10
2024-03-02T19:12:43.142Z,38.67
2024-03-02T19:15:23.935Z,37.07
2024-03-02T19:17:51.352Z,35.63
2024-03-02T19:20:20.772Z,37.97
2024-03-02T19:22:51.608Z,36.50
2024-03-02T19:25:22.140Z,36.43
2024-03-02T19:27:51.455Z,36.37
2024-03-02T19:30:18.370Z,34.47
2024-03-02T19:32:46.404Z,36.23
2024-03-02T19:35:15.301Z,35.03
2024-03-02T19:37:42.646Z,35.93
2024-03-02T19:40:11.894Z,37.30
2024-03-02T19:42:40.568Z,36.10
2024-03-02T19:45:10.842Z,35.53
2024-03-02T19:47:39.931Z,35.73
2024-03-02T19:50:09.894Z,35.37
2024-03-02T19:52:40.843Z,34.07
2024-03-02T19:55:08.247Z,34.17
2024-03-02T19:57:40.132Z,34.37
2024-03-02T20:00:08.351Z,35.07
2024-03-02T20:02:35.414Z,34.57
2024-03-02T20:05:06.174Z,34.53
2024-03-02T20:07:34.522Z,35.93
2024-03-02T20:10:01.569Z,35.10
2024-03-02T20:12:29.722Z,35.67
2024-03-02T20:14:57.152Z,35.47
2024-03-02T20:17:24.508Z,33.77
2024-03-02T20:19:52.089Z,34.40
2024-03-02T20:22:19.272Z,34.90
2024-03-02T20:24:46.766Z,35.03
2024-03-02T20:27:23.620Z,35.07
2024-03-02T20:29:51.039Z,36.43
2024-03-02T20:32:20.724Z,35.87
2024-03-02T20:34:47.854Z,35.87
2024-03-02T20:37:15.574Z,37.00
2024-03-02T20:39:43.559Z,36.00
2024-03-02T20:42:22.626Z,36.00
2024-03-02T20:44:57.172Z,36.80
2024-03-02T20:47:25.193Z,37.73
2024-03-02T20:49:52.720Z,38.70
2024-03-02T20:52:21.100Z,39.00
2024-03-02T20:54:48.592Z,37.03
2024-03-02T20:57:16.109Z,36.53
2024-03-02T20:59:43.160Z,39.03
2024-03-02T21:02:10.341Z,37.60
2024-03-02T21:04:39.724Z,37.33
2024-03-02T21:07:07.280Z,37.33
2024-03-02T21:09:34.136Z,37.00
2024-03-02T21:12:01.752Z,35.33
2024-03-02T21:14:29.464Z,35.60
2024-03-02T21:16:57.298Z,37.33
2024-03-02T21:19:25.669Z,36.30
2024-03-02T21:21:52.856Z,36.80
2024-03-02T21:24:23.298Z,35.87
2024-03-02T21:26:51.511Z,36.67
2024-03-02T21:29:23.286Z,37.47
2024-03-02T21:31:52.250Z,36.60
2024-03-02T21:34:19.549Z,36.07
2024-03-02T21:36:49.069Z,38.00
2024-03-02T21:39:15.890Z,33.97
2024-03-02T21:41:47.521Z,34.03
2024-03-02T21:44:17.885Z,34.27
2024-03-02T21:46:50.035Z,36.70
2024-03-02T21:49:18.377Z,33.07
2024-03-02T21:51:45.699Z,33.10
2024-03-02T21:54:12.827Z,33.00
2024-03-02T21:56:40.245Z,33.77
2024-03-02T21:59:07.654Z,34.47
2024-03-02T22:01:35.100Z,35.80
2024-03-02T22:04:09.872Z,33.73
2024-03-02T22:06:38.550Z,34.97
2024-03-02T22:09:06.952Z,32.87
2024-03-02T22:11:34.904Z,33.93
2024-03-02T22:14:02.128Z,35.00
2024-03-02T22:16:29.633Z,36.33
2024-03-02T22:18:57.068Z,35.10
2024-03-02T22:21:24.114Z,37.57
2024-03-02T22:23:51.505Z,38.00
2024-03-02T22:26:20.282Z,37.80
2024-03-02T22:28:49.684Z,37.53
2024-03-02T22:31:16.860Z,38.00
2024-03-02T22:33:44.657Z,38.27
2024-03-02T22:36:13.055Z,37.37
2024-03-02T22:38:41.607Z,37.40
2024-03-02T22:41:08.556Z,36.20
2024-03-02T22:43:36.964Z,37.40
2024-03-02T22:46:03.809Z,36.67
2024-03-02T22:48:32.554Z,36.10
2024-03-02T22:51:00.757Z,36.13
2024-03-02T22:53:27.593Z,36.13
2024-03-02T22:55:54.805Z,35.60
2024-03-02T22:58:21.969Z,36.10
2024-03-02T23:00:50.245Z,35.20
2024-03-02T23:03:19.967Z,36.67
2024-03-02T23:05:47.220Z,35.63
2024-03-02T23:08:15.898Z,35.30
2024-03-02T23:10:43.756Z,35.37
2024-03-02T23:13:10.942Z,35.13
2024-03-02T23:15:38.019Z,35.40
2024-03-02T23:18:05.491Z,36.80
2024-03-02T23:20:33.012Z,36.10
2024-03-02T23:23:10.127Z,36.03
2024-03-02T23:25:38.139Z,35.07
2024-03-02T23:28:05.739Z,36.87
2024-03-02T23:30:35.103Z,35.50
2024-03-02T23:33:04.514Z,34.87
2024-03-02T23:35:32.849Z,36.23
2024-03-02T23:38:00.537Z,35.23
2024-03-02T23:40:40.151Z,35.37
2024-03-02T23:43:12.566Z,35.77
2024-03-02T23:45:41.036Z,35.57
2024-03-02T23:48:12.329Z,36.23
2024-03-02T23:50:42.697Z,36.30
2024-03-02T23:53:13.172Z,35.27
2024-03-02T23:55:47.470Z,36.63
2024-03-02T23:58:22.139Z,35.87
